Time;durP1;ratioP1;P1;durP2;ratioP2;P2;SDS_P1;SDS_P2;PMS_P1;PMS_P2;Temp;Humidity;BMP_temperature;BMP_pressure;BME280_temperature;BME280_humidity;BME280_pressure;Samples;Min_cycle;Max_cycle;Signal;HPM_P1;HPM_P2
2022/08/29 00:01:40;;;;;;;13.23;4.80;;;13.60;99.90;;;;;;5043444;28;20048;-66
2022/08/29 00:04:05;;;;;;;10.55;4.75;;;13.70;99.90;;;;;;5040459;28;20069;-66
2022/08/29 00:06:31;;;;;;;10.85;4.55;;;13.80;99.90;;;;;;5039089;28;20042;-67
2022/08/29 00:08:56;;;;;;;13.48;4.90;;;13.70;99.90;;;;;;5037194;28;20040;-67
2022/08/29 00:11:22;;;;;;;10.57;5.18;;;13.80;99.90;;;;;;5043363;28;20037;-66
2022/08/29 00:13:48;;;;;;;23.55;5.05;;;13.70;99.90;;;;;;5046092;28;20380;-66
2022/08/29 00:16:14;;;;;;;14.05;4.25;;;13.70;99.90;;;;;;5044619;28;20041;-66
2022/08/29 00:18:40;;;;;;;10.68;4.68;;;13.80;99.90;;;;;;5054575;28;20041;-66
2022/08/29 00:21:06;;;;;;;12.65;4.88;;;13.80;99.90;;;;;;5036828;28;20037;-67
2022/08/29 00:23:31;;;;;;;10.18;4.50;;;13.80;99.90;;;;;;5043921;28;20495;-67
2022/08/29 00:25:57;;;;;;;9.65;4.90;;;13.90;99.90;;;;;;5060774;28;20041;-67
2022/08/29 00:28:23;;;;;;;13.43;4.78;;;13.80;99.90;;;;;;5045390;28;20037;-67
2022/08/29 00:30:49;;;;;;;12.07;4.10;;;13.90;99.90;;;;;;5044934;28;20586;-67
2022/08/29 00:33:15;;;;;;;13.68;4.07;;;13.90;99.90;;;;;;5045854;28;20033;-67
2022/08/29 00:35:43;;;;;;;9.32;4.28;;;14.00;99.90;;;;;;5045948;28;20041;-67
2022/08/29 00:38:11;;;;;;;9.60;4.28;;;13.90;99.90;;;;;;5044532;28;20041;-67
2022/08/29 00:40:52;;;;;;;8.50;4.15;;;14.00;99.90;;;;;;5042172;28;20392;-67
2022/08/29 00:43:21;;;;;;;8.02;4.38;;;14.00;99.90;;;;;;5032031;28;20471;-66
2022/08/29 00:46:30;;;;;;;8.80;4.65;;;14.00;99.90;;;;;;5040083;28;20049;-67
2022/08/29 00:49:01;;;;;;;10.05;4.72;;;14.00;99.90;;;;;;5036422;28;20373;-67
2022/08/29 00:51:26;;;;;;;8.88;5.10;;;14.00;99.90;;;;;;5036110;28;20038;-67
2022/08/29 00:53:58;;;;;;;8.68;4.63;;;13.90;99.90;;;;;;5055693;28;20212;-67
2022/08/29 00:56:24;;;;;;;7.88;4.68;;;13.90;99.90;;;;;;5039955;28;20554;-67
2022/08/29 00:58:59;;;;;;;8.63;4.43;;;13.90;99.90;;;;;;5035107;28;20044;-67
2022/08/29 01:01:25;;;;;;;8.25;4.70;;;13.80;99.90;;;;;;5033641;28;20048;-67
2022/08/29 01:03:52;;;;;;;10.98;5.43;;;13.90;99.90;;;;;;5039444;28;20442;-67
2022/08/29 01:06:19;;;;;;;8.40;4.75;;;13.90;99.90;;;;;;5036859;28;20047;-66
2022/08/29 01:08:45;;;;;;;22.30;5.57;;;13.80;99.90;;;;;;5056564;28;20072;-67
2022/08/29 01:14:00;;;;;;;10.60;5.18;;;13.80;99.90;;;;;;5039643;28;20068;-67
2022/08/29 01:16:27;;;;;;;10.85;5.25;;;13.90;99.90;;;;;;5041661;28;20078;-66
2022/08/29 01:18:59;;;;;;;13.52;5.13;;;13.80;99.90;;;;;;5040335;28;20040;-67
2022/08/29 01:21:38;;;;;;;9.38;5.28;;;13.90;99.90;;;;;;5041043;28;20040;-67
2022/08/29 01:24:14;;;;;;;12.00;5.43;;;13.90;99.90;;;;;;5044223;28;20060;-67
2022/08/29 01:26:45;;;;;;;8.50;4.78;;;13.90;99.90;;;;;;5042235;28;20067;-67
2022/08/29 01:29:11;;;;;;;11.20;5.82;;;14.00;99.90;;;;;;5041605;28;20576;-67
2022/08/29 01:31:43;;;;;;;10.68;5.25;;;14.00;99.90;;;;;;5042949;28;20064;-67
2022/08/29 01:34:11;;;;;;;11.57;5.68;;;14.00;99.90;;;;;;5041085;28;20045;-67
2022/08/29 01:36:49;;;;;;;8.10;5.28;;;14.10;99.90;;;;;;5035335;28;20496;-67
2022/08/29 01:39:16;;;;;;;10.15;5.13;;;14.00;99.90;;;;;;5039287;28;20045;-67
2022/08/29 01:41:43;;;;;;;13.57;5.43;;;14.10;99.90;;;;;;5046131;28;20067;-67
2022/08/29 01:44:15;;;;;;;14.07;5.57;;;14.10;99.90;;;;;;5040882;28;20040;-67
2022/08/29 01:46:40;;;;;;;11.10;5.78;;;14.00;99.90;;;;;;5044064;28;20059;-67
2022/08/29 01:49:09;;;;;;;10.43;5.40;;;14.10;99.90;;;;;;5046041;28;20479;-67
2022/08/29 01:51:35;;;;;;;13.13;6.40;;;14.00;99.90;;;;;;5044822;28;20041;-67
2022/08/29 01:54:01;;;;;;;11.00;5.65;;;14.00;99.90;;;;;;5058473;28;20093;-67
2022/08/29 01:56:29;;;;;;;11.68;5.65;;;14.00;99.90;;;;;;5047500;28;20040;-67
2022/08/29 01:58:57;;;;;;;9.38;6.03;;;14.10;99.90;;;;;;5036828;28;20056;-67
2022/08/29 02:01:29;;;;;;;11.63;5.40;;;14.10;99.90;;;;;;5037386;28;20048;-67
2022/08/29 02:03:57;;;;;;;11.48;6.03;;;14.10;99.90;;;;;;5041316;28;20082;-67
2022/08/29 02:06:23;;;;;;;10.75;5.75;;;14.10;99.90;;;;;;5033778;28;20049;-67
2022/08/29 02:08:48;;;;;;;10.63;5.38;;;14.10;99.90;;;;;;5058297;28;20049;-67
2022/08/29 02:11:16;;;;;;;12.30;6.10;;;14.10;99.90;;;;;;5037360;28;20056;-66
2022/08/29 02:13:45;;;;;;;11.82;6.05;;;14.20;99.90;;;;;;5044149;28;20033;-66
2022/08/29 02:16:12;;;;;;;11.88;6.28;;;14.10;99.90;;;;;;5041628;28;20693;-66
2022/08/29 02:18:39;;;;;;;13.93;5.60;;;14.10;99.90;;;;;;5040676;28;20045;-66
2022/08/29 02:21:05;;;;;;;11.40;5.35;;;14.20;99.90;;;;;;5038478;28;20151;-66
2022/08/29 02:23:33;;;;;;;13.10;6.03;;;14.20;99.90;;;;;;5043293;28;20052;-66
2022/08/29 02:25:59;;;;;;;12.35;5.80;;;14.20;99.90;;;;;;5039568;28;20430;-67
2022/08/29 02:28:25;;;;;;;11.85;6.55;;;14.20;99.90;;;;;;5044168;28;20039;-67
2022/08/29 02:30:52;;;;;;;14.35;6.55;;;14.20;99.90;;;;;;5040930;28;20037;-66
2022/08/29 02:33:19;;;;;;;14.95;5.80;;;14.20;99.90;;;;;;5040472;28;20076;-66
2022/08/29 02:35:45;;;;;;;10.70;5.82;;;14.20;99.90;;;;;;5037498;28;20511;-66
2022/08/29 02:38:11;;;;;;;10.15;5.35;;;14.20;99.90;;;;;;5043684;28;20033;-67
2022/08/29 02:40:37;;;;;;;11.73;5.55;;;14.20;99.90;;;;;;5042358;28;20047;-67
2022/08/29 02:43:04;;;;;;;12.43;5.43;;;14.30;99.90;;;;;;5042735;28;20048;-67
2022/08/29 02:45:31;;;;;;;9.25;5.00;;;14.30;99.90;;;;;;5043223;28;20037;-67
2022/08/29 02:47:57;;;;;;;10.13;5.00;;;14.40;99.90;;;;;;5040694;28;20088;-66
2022/08/29 02:50:24;;;;;;;12.13;4.72;;;14.40;99.90;;;;;;5040395;28;20037;-66
2022/08/29 02:52:50;;;;;;;13.75;5.47;;;14.40;99.90;;;;;;5039143;28;20515;-66
2022/08/29 02:55:18;;;;;;;10.15;4.55;;;14.40;99.90;;;;;;5036324;28;20119;-66
2022/08/29 02:57:45;;;;;;;11.40;4.57;;;14.40;99.90;;;;;;5039116;28;20060;-66
2022/08/29 03:00:15;;;;;;;9.82;4.38;;;14.40;99.90;;;;;;5044548;28;20039;-66
2022/08/29 03:02:41;;;;;;;9.65;4.72;;;14.40;99.90;;;;;;5041360;28;20037;-67
2022/08/29 03:05:08;;;;;;;11.73;5.13;;;14.50;99.90;;;;;;5038908;28;20095;-66
2022/08/29 03:07:34;;;;;;;11.13;4.65;;;14.50;99.90;;;;;;5034995;28;20033;-66
2022/08/29 03:09:59;;;;;;;11.45;4.32;;;14.50;99.90;;;;;;5036465;28;20756;-66
2022/08/29 03:12:26;;;;;;;10.10;4.53;;;14.50;99.90;;;;;;5037822;28;20029;-66
2022/08/29 03:14:51;;;;;;;8.00;4.95;;;14.50;99.90;;;;;;5053628;28;21461;-66
2022/08/29 03:17:17;;;;;;;12.27;4.70;;;14.50;99.90;;;;;;5043762;28;20064;-67
2022/08/29 03:19:43;;;;;;;7.10;4.40;;;14.50;99.90;;;;;;5043377;28;20120;-67
2022/08/29 03:22:08;;;;;;;9.32;4.45;;;14.50;99.90;;;;;;5040286;28;20064;-67
2022/08/29 03:24:35;;;;;;;10.95;4.15;;;14.50;99.90;;;;;;5042984;28;20033;-67
2022/08/29 03:27:01;;;;;;;12.45;4.38;;;14.50;99.90;;;;;;5042309;28;20037;-67
2022/08/29 03:29:27;;;;;;;8.95;4.20;;;14.50;99.90;;;;;;5036529;28;20507;-67
2022/08/29 03:31:57;;;;;;;10.02;4.50;;;14.50;99.90;;;;;;5039962;28;20033;-67
2022/08/29 03:34:23;;;;;;;10.93;4.57;;;14.50;99.90;;;;;;5039533;28;20555;-67
2022/08/29 03:36:50;;;;;;;14.43;4.95;;;14.60;99.90;;;;;;5037709;28;20040;-67
2022/08/29 03:39:15;;;;;;;10.10;4.85;;;14.50;99.90;;;;;;5042797;28;20044;-66
2022/08/29 03:41:41;;;;;;;9.23;4.38;;;14.50;99.90;;;;;;5039426;28;20041;-67
2022/08/29 03:44:07;;;;;;;10.05;4.40;;;14.40;99.90;;;;;;5039692;28;20033;-67
2022/08/29 03:46:35;;;;;;;8.90;4.30;;;14.50;99.90;;;;;;5039720;28;20744;-67
2022/08/29 03:49:00;;;;;;;8.70;4.35;;;14.40;99.90;;;;;;5039440;28;20030;-67
2022/08/29 03:51:26;;;;;;;8.25;4.75;;;14.40;99.90;;;;;;5041431;28;20037;-67
2022/08/29 03:53:53;;;;;;;10.45;4.43;;;14.40;99.90;;;;;;5041701;28;20036;-67
2022/08/29 03:56:19;;;;;;;11.43;4.80;;;14.40;99.90;;;;;;5037279;28;21302;-67
2022/08/29 03:58:49;;;;;;;8.18;4.75;;;14.40;99.90;;;;;;5038242;28;20399;-67
2022/08/29 04:01:16;;;;;;;9.13;4.30;;;14.40;99.90;;;;;;5036308;28;20494;-67
2022/08/29 04:03:42;;;;;;;9.85;4.57;;;14.40;99.90;;;;;;5038481;28;20049;-67
2022/08/29 04:06:08;;;;;;;8.27;4.53;;;14.40;99.90;;;;;;5029253;28;20519;-67
2022/08/29 04:08:33;;;;;;;10.27;4.53;;;14.30;99.90;;;;;;5036469;28;20072;-67
2022/08/29 04:10:59;;;;;;;8.48;4.75;;;14.20;99.90;;;;;;5042487;28;20047;-67
2022/08/29 04:13:25;;;;;;;9.90;4.30;;;14.30;99.90;;;;;;5036313;28;20541;-67
2022/08/29 04:15:52;;;;;;;8.57;4.30;;;14.30;99.90;;;;;;5057703;28;20072;-67
2022/08/29 04:18:18;;;;;;;10.27;4.30;;;14.30;99.90;;;;;;5043458;28;20041;-67
2022/08/29 04:20:43;;;;;;;9.07;4.68;;;14.30;99.90;;;;;;5038591;28;20095;-67
2022/08/29 04:23:11;;;;;;;11.60;4.82;;;14.20;99.90;;;;;;5034468;28;20120;-66
2022/08/29 04:25:38;;;;;;;9.35;4.50;;;14.20;99.90;;;;;;5044912;28;20243;-67
2022/08/29 04:28:09;;;;;;;9.80;5.00;;;14.10;99.90;;;;;;5036201;28;20045;-67
2022/08/29 04:30:37;;;;;;;12.75;5.13;;;14.10;99.90;;;;;;5037277;28;20040;-66
2022/08/29 04:33:02;;;;;;;10.45;5.15;;;14.00;99.90;;;;;;5058396;28;20032;-67
2022/08/29 04:35:28;;;;;;;16.92;6.20;;;14.00;99.90;;;;;;5039291;28;20510;-66
2022/08/29 04:37:54;;;;;;;16.85;6.13;;;13.90;99.90;;;;;;5044866;28;20507;-66
2022/08/29 04:40:21;;;;;;;13.25;5.68;;;13.90;99.90;;;;;;5040729;28;20032;-66
2022/08/29 04:42:47;;;;;;;15.10;6.00;;;13.90;99.90;;;;;;5049241;28;20522;-66
2022/08/29 04:45:16;;;;;;;12.95;5.50;;;13.90;99.90;;;;;;5048215;28;20044;-67
2022/08/29 04:47:43;;;;;;;10.60;4.40;;;14.00;99.90;;;;;;5047361;28;20037;-66
2022/08/29 04:50:13;;;;;;;14.32;5.13;;;13.90;99.90;;;;;;5048693;28;20036;-66
2022/08/29 04:52:39;;;;;;;14.98;5.38;;;13.90;99.90;;;;;;5040591;28;20036;-66
2022/08/29 04:55:07;;;;;;;15.43;6.07;;;13.90;99.90;;;;;;5044937;28;20037;-67
2022/08/29 04:57:34;;;;;;;14.43;5.43;;;14.00;99.90;;;;;;5039424;28;20041;-67
2022/08/29 05:00:00;;;;;;;10.73;4.75;;;13.90;99.90;;;;;;5043208;28;20071;-66
2022/08/29 05:02:26;;;;;;;8.85;4.35;;;13.90;99.90;;;;;;5053729;28;20498;-66
2022/08/29 05:04:53;;;;;;;11.77;5.30;;;13.90;99.90;;;;;;5039831;28;20064;-66
2022/08/29 05:07:24;;;;;;;11.90;5.03;;;13.90;99.90;;;;;;5045138;28;20437;-66
2022/08/29 05:09:59;;;;;;;12.27;4.10;;;13.90;99.90;;;;;;5041979;28;20036;-66
2022/08/29 05:12:27;;;;;;;11.02;4.50;;;13.80;99.90;;;;;;5040525;28;20043;-66
2022/08/29 05:14:53;;;;;;;12.70;4.72;;;13.80;99.90;;;;;;5038680;28;20098;-66
2022/08/29 05:17:19;;;;;;;14.38;4.45;;;13.90;99.90;;;;;;5043999;28;20037;-66
2022/08/29 05:19:45;;;;;;;10.43;4.30;;;13.90;99.90;;;;;;5056194;28;20709;-66
2022/08/29 05:22:12;;;;;;;8.15;4.22;;;13.80;99.90;;;;;;5044906;28;20113;-66
2022/08/29 05:24:38;;;;;;;12.40;4.20;;;13.80;99.90;;;;;;5041847;28;20084;-66
2022/08/29 05:27:13;;;;;;;8.27;4.18;;;13.90;99.90;;;;;;5046425;28;20510;-66
2022/08/29 05:29:40;;;;;;;10.93;4.70;;;13.90;99.90;;;;;;5048908;28;20522;-67
2022/08/29 05:32:07;;;;;;;9.05;4.10;;;13.90;99.90;;;;;;5038554;28;20043;-66
2022/08/29 05:34:34;;;;;;;8.93;4.32;;;14.00;99.90;;;;;;5040689;28;20091;-66
2022/08/29 05:37:01;;;;;;;10.15;4.10;;;14.00;99.90;;;;;;5042026;28;20110;-67
2022/08/29 05:39:26;;;;;;;11.43;5.32;;;14.10;99.90;;;;;;5040199;28;20052;-67
2022/08/29 05:41:54;;;;;;;9.63;4.47;;;14.20;99.90;;;;;;5039985;28;20131;-67
2022/08/29 05:44:20;;;;;;;6.50;4.50;;;14.10;99.90;;;;;;5038395;28;20034;-67
2022/08/29 05:46:47;;;;;;;12.70;4.82;;;14.20;99.90;;;;;;5040406;28;20049;-67
2022/08/29 05:49:13;;;;;;;9.90;4.25;;;14.30;99.90;;;;;;5046182;28;20755;-67
2022/08/29 05:51:39;;;;;;;11.35;4.00;;;14.30;99.90;;;;;;5046251;28;20036;-66
2022/08/29 05:54:06;;;;;;;9.80;3.95;;;14.50;99.90;;;;;;5047841;28;20472;-67
2022/08/29 05:56:31;;;;;;;11.70;4.53;;;14.50;99.90;;;;;;5045593;28;20037;-67
2022/08/29 05:58:57;;;;;;;11.60;4.75;;;14.60;99.90;;;;;;5043924;28;20090;-67
2022/08/29 06:01:30;;;;;;;10.40;4.22;;;14.60;99.90;;;;;;5045104;28;20581;-66
2022/08/29 06:03:56;;;;;;;12.80;4.63;;;14.70;99.90;;;;;;5041510;28;20853;-67
2022/08/29 06:06:24;;;;;;;11.18;4.20;;;14.80;99.90;;;;;;5049893;28;20128;-66
2022/08/29 06:08:51;;;;;;;10.68;4.35;;;14.80;99.90;;;;;;5043927;28;20163;-67
2022/08/29 06:11:24;;;;;;;9.00;4.35;;;14.90;99.90;;;;;;5050859;28;20071;-66
2022/08/29 06:13:49;;;;;;;16.33;4.28;;;15.00;99.90;;;;;;5048069;28;20049;-66
2022/08/29 06:16:18;;;;;;;10.73;4.65;;;15.00;99.90;;;;;;5051681;28;20479;-66
2022/08/29 06:18:45;;;;;;;12.52;4.68;;;15.00;99.90;;;;;;5051067;28;20103;-66
2022/08/29 06:21:12;;;;;;;10.88;4.32;;;15.10;99.90;;;;;;5042753;28;20048;-67
2022/08/29 06:23:39;;;;;;;14.13;4.65;;;15.10;99.90;;;;;;5046139;28;20047;-66
2022/08/29 06:26:07;;;;;;;9.85;4.00;;;15.20;99.90;;;;;;5048104;28;20044;-66
2022/08/29 06:28:34;;;;;;;7.43;3.72;;;15.20;99.90;;;;;;5048875;28;20095;-66
2022/08/29 06:31:12;;;;;;;8.38;4.40;;;15.30;99.90;;;;;;5047687;28;20025;-66
2022/08/29 06:33:38;;;;;;;8.57;3.95;;;15.40;99.90;;;;;;5049446;28;20064;-66
2022/08/29 06:36:05;;;;;;;11.32;4.55;;;15.40;99.90;;;;;;5050014;28;20041;-66
2022/08/29 06:38:31;;;;;;;9.38;3.92;;;15.50;99.90;;;;;;5045469;28;20740;-67
2022/08/29 06:41:02;;;;;;;14.40;4.55;;;15.60;99.90;;;;;;5048999;28;20044;-66
2022/08/29 06:43:28;;;;;;;12.85;3.85;;;15.60;99.90;;;;;;5050268;28;20063;-67
2022/08/29 06:45:53;;;;;;;10.35;4.00;;;15.70;99.90;;;;;;5047982;28;20049;-68
2022/08/29 06:48:19;;;;;;;8.93;3.50;;;15.90;99.90;;;;;;5047498;28;20052;-68
2022/08/29 06:50:45;;;;;;;11.38;3.45;;;15.90;99.90;;;;;;5052433;28;20043;-66
2022/08/29 06:53:10;;;;;;;9.63;3.55;;;15.90;99.90;;;;;;5046745;28;20185;-67
2022/08/29 06:55:37;;;;;;;9.63;3.25;;;16.00;99.90;;;;;;5048048;28;20052;-67
2022/08/29 06:58:03;;;;;;;11.23;4.40;;;16.00;99.90;;;;;;5048702;28;20538;-67
2022/08/29 07:00:29;;;;;;;11.00;3.65;;;16.10;99.90;;;;;;5059789;28;20158;-67
2022/08/29 07:02:54;;;;;;;8.35;3.08;;;16.20;99.90;;;;;;5047048;28;20127;-67
2022/08/29 07:05:22;;;;;;;10.98;3.30;;;16.20;99.90;;;;;;5044973;28;20033;-67
2022/08/29 07:07:48;;;;;;;8.68;3.38;;;16.20;99.90;;;;;;5044795;28;20391;-67
2022/08/29 07:10:14;;;;;;;8.30;3.08;;;16.20;99.90;;;;;;5044994;28;20141;-67
2022/08/29 07:12:40;;;;;;;9.48;3.40;;;16.30;99.90;;;;;;5057979;28;20471;-67
2022/08/29 07:15:06;;;;;;;8.90;2.90;;;16.40;99.90;;;;;;5043535;28;20049;-68
2022/08/29 07:17:32;;;;;;;10.05;3.88;;;16.50;99.90;;;;;;5043123;28;20372;-67
2022/08/29 07:19:58;;;;;;;7.90;3.00;;;16.50;99.90;;;;;;5045707;28;20482;-67
2022/08/29 07:22:27;;;;;;;8.77;3.45;;;16.60;99.90;;;;;;5043115;28;20041;-67
2022/08/29 07:24:54;;;;;;;12.18;3.70;;;16.60;99.90;;;;;;5060810;28;20041;-66
2022/08/29 07:27:20;;;;;;;10.15;3.55;;;16.60;99.90;;;;;;5045299;28;20395;-67
2022/08/29 07:29:47;;;;;;;9.10;3.60;;;16.70;99.90;;;;;;5045712;28;20071;-67
2022/08/29 07:32:13;;;;;;;8.43;3.55;;;16.80;99.90;;;;;;5039173;28;20322;-67
2022/08/29 07:34:38;;;;;;;17.83;3.63;;;16.90;99.90;;;;;;5036456;28;20083;-67
2022/08/29 07:37:04;;;;;;;8.95;3.10;;;16.90;99.90;;;;;;5042389;28;20430;-67
2022/08/29 07:39:31;;;;;;;10.98;3.30;;;17.10;99.90;;;;;;5043567;28;20040;-67
2022/08/29 07:41:57;;;;;;;7.90;2.80;;;17.20;99.90;;;;;;5045039;28;20102;-67
2022/08/29 07:44:23;;;;;;;11.38;3.50;;;17.30;99.90;;;;;;5041158;28;20124;-67
2022/08/29 07:46:57;;;;;;;9.32;3.10;;;17.60;99.90;;;;;;5043721;28;20077;-67
2022/08/29 07:49:24;;;;;;;9.30;3.55;;;17.70;99.90;;;;;;5044593;28;20132;-67
2022/08/29 07:51:54;;;;;;;12.18;3.25;;;17.80;99.90;;;;;;5043418;28;20029;-67
2022/08/29 07:54:21;;;;;;;8.15;2.83;;;17.90;99.90;;;;;;5045158;28;20037;-67
2022/08/29 07:56:49;;;;;;;9.07;2.90;;;17.90;99.90;;;;;;5046118;28;20111;-68
2022/08/29 07:59:16;;;;;;;6.78;2.63;;;18.00;99.90;;;;;;5044129;28;20128;-67
2022/08/29 08:01:42;;;;;;;7.28;2.78;;;18.10;99.90;;;;;;5041552;28;20111;-67
2022/08/29 08:04:09;;;;;;;6.68;2.60;;;18.20;99.90;;;;;;5044806;28;20123;-68
2022/08/29 08:06:36;;;;;;;8.90;2.45;;;18.20;99.90;;;;;;5043646;28;20053;-68
2022/08/29 08:09:04;;;;;;;3.72;2.38;;;18.30;99.90;;;;;;5045190;28;20052;-67
2022/08/29 08:11:30;;;;;;;5.95;2.10;;;18.40;99.90;;;;;;5043238;28;20141;-68
2022/08/29 08:13:56;;;;;;;6.55;2.30;;;18.40;99.90;;;;;;5047497;28;20079;-68
2022/08/29 08:16:24;;;;;;;10.00;2.70;;;18.40;99.90;;;;;;5048117;28;20045;-67
2022/08/29 08:18:51;;;;;;;6.25;2.70;;;18.50;99.90;;;;;;5051336;28;20117;-67
2022/08/29 08:21:16;;;;;;;4.80;2.05;;;18.60;99.90;;;;;;5049131;28;20723;-68
2022/08/29 08:23:42;;;;;;;6.45;2.08;;;18.70;99.90;;;;;;5047409;28;21386;-67
2022/08/29 08:26:10;;;;;;;8.57;2.50;;;18.70;99.90;;;;;;5048756;28;20063;-67
2022/08/29 08:28:36;;;;;;;5.85;2.58;;;18.70;99.90;;;;;;5047290;28;20507;-67
2022/08/29 08:31:05;;;;;;;7.50;2.40;;;18.70;99.90;;;;;;5051742;28;20034;-67
2022/08/29 08:33:30;;;;;;;7.60;2.45;;;18.60;99.90;;;;;;5054953;28;20045;-67
2022/08/29 08:35:56;;;;;;;6.18;2.58;;;18.60;99.90;;;;;;5053222;28;20502;-67
2022/08/29 08:38:22;;;;;;;5.50;2.45;;;18.60;99.90;;;;;;5051888;28;20086;-67
2022/08/29 08:41:04;;;;;;;6.05;2.53;;;18.60;99.90;;;;;;5051603;28;20051;-67
2022/08/29 08:43:54;;;;;;;7.25;2.55;;;18.60;99.90;;;;;;5054072;28;20094;-68
2022/08/29 08:46:43;;;;;;;5.60;2.10;;;18.70;99.90;;;;;;5044789;28;20041;-68
2022/08/29 08:49:11;;;;;;;5.55;2.40;;;18.70;99.90;;;;;;5057993;28;20037;-67
2022/08/29 08:51:42;;;;;;;7.82;2.50;;;18.70;99.90;;;;;;5050385;28;20138;-68
2022/08/29 08:54:15;;;;;;;7.40;2.28;;;18.70;99.90;;;;;;5049398;28;20048;-67
2022/08/29 08:56:45;;;;;;;7.97;2.60;;;18.60;99.90;;;;;;5041170;28;20070;-67
2022/08/29 08:59:23;;;;;;;10.98;2.60;;;18.80;99.90;;;;;;5044230;28;20159;-68
2022/08/29 09:01:55;;;;;;;8.15;2.72;;;18.90;99.90;;;;;;5050338;28;20055;-68
2022/08/29 09:04:58;;;;;;;8.95;2.70;;;19.10;99.90;;;;;;5054485;28;20567;-68
2022/08/29 09:07:47;;;;;;;6.88;2.83;;;19.20;99.90;;;;;;5056205;28;20510;-67
2022/08/29 09:10:16;;;;;;;6.90;2.88;;;19.20;99.90;;;;;;5020165;28;20079;-67
2022/08/29 09:13:08;;;;;;;7.68;2.47;;;19.30;99.90;;;;;;5051055;28;20048;-67
2022/08/29 09:15:46;;;;;;;7.40;2.80;;;19.20;99.90;;;;;;5052256;28;20072;-67
2022/08/29 09:18:41;;;;;;;9.25;2.63;;;19.30;99.90;;;;;;5047925;28;20045;-68
2022/08/29 09:21:15;;;;;;;8.90;2.67;;;19.40;99.90;;;;;;5051068;28;20129;-68
2022/08/29 09:23:53;;;;;;;7.28;2.78;;;19.30;99.90;;;;;;5050133;28;20071;-67
2022/08/29 09:26:21;;;;;;;9.63;2.60;;;19.30;99.90;;;;;;5048958;28;20052;-68
2022/08/29 09:28:48;;;;;;;7.63;2.58;;;19.30;99.90;;;;;;5045290;28;20053;-68
2022/08/29 09:31:22;;;;;;;10.43;2.65;;;19.30;99.90;;;;;;5050517;28;20037;-68
2022/08/29 09:34:01;;;;;;;7.82;2.50;;;19.30;99.90;;;;;;5051560;28;20045;-68
2022/08/29 09:36:43;;;;;;;6.45;2.75;;;19.40;99.90;;;;;;5050688;28;20049;-68
2022/08/29 09:39:17;;;;;;;8.45;2.90;;;19.50;99.90;;;;;;5050894;28;20055;-67
2022/08/29 09:41:46;;;;;;;9.02;2.95;;;19.60;99.90;;;;;;5051987;28;20053;-67
2022/08/29 09:44:39;;;;;;;8.82;3.25;;;19.70;99.90;;;;;;5053144;28;20115;-68
2022/08/29 09:47:32;;;;;;;7.90;2.40;;;19.80;99.90;;;;;;5049528;28;20113;-67
2022/08/29 09:50:03;;;;;;;8.70;2.80;;;19.90;99.90;;;;;;5052332;28;20056;-67
2022/08/29 09:52:29;;;;;;;6.68;2.80;;;19.90;99.90;;;;;;5054611;28;20482;-66
2022/08/29 09:54:55;;;;;;;8.10;3.17;;;20.10;99.90;;;;;;5053250;28;20609;-67
2022/08/29 09:57:25;;;;;;;5.03;2.53;;;20.20;99.90;;;;;;5042978;28;20033;-68
2022/08/29 10:00:12;;;;;;;7.93;2.75;;;20.40;99.90;;;;;;5047183;28;20037;-67
2022/08/29 10:02:51;;;;;;;5.13;2.85;;;20.50;99.90;;;;;;5049261;28;20037;-68
2022/08/29 10:05:45;;;;;;;6.65;2.80;;;20.40;99.90;;;;;;5045298;28;20522;-67
2022/08/29 10:08:33;;;;;;;12.90;2.83;;;20.40;99.90;;;;;;5045611;28;20033;-67
2022/08/29 10:11:02;;;;;;;5.65;2.47;;;20.30;99.90;;;;;;5043341;28;20033;-68
2022/08/29 10:13:56;;;;;;;8.73;3.10;;;20.30;99.90;;;;;;5049983;28;20033;-67
2022/08/29 10:16:47;;;;;;;6.28;2.63;;;20.40;99.90;;;;;;5048193;28;20047;-68
2022/08/29 10:19:19;;;;;;;7.45;2.72;;;20.40;99.90;;;;;;5047792;28;20036;-67
2022/08/29 10:22:17;;;;;;;7.18;2.72;;;20.30;99.90;;;;;;5048434;28;20037;-67
2022/08/29 10:24:53;;;;;;;8.00;2.70;;;20.40;99.90;;;;;;5036666;28;20044;-67
2022/08/29 10:27:39;;;;;;;10.32;3.00;;;20.60;99.90;;;;;;5054684;28;20128;-67
2022/08/29 10:30:07;;;;;;;6.78;2.60;;;20.80;99.90;;;;;;5042351;28;20041;-67
2022/08/29 10:32:50;;;;;;;7.28;2.60;;;21.00;99.90;;;;;;5049365;28;20055;-67
2022/08/29 10:35:18;;;;;;;6.13;2.20;;;21.30;99.90;;;;;;5044940;28;20036;-67
2022/08/29 10:38:08;;;;;;;8.32;2.80;;;21.50;99.90;;;;;;5044643;28;20041;-66
2022/08/29 10:41:01;;;;;;;9.90;2.75;;;21.60;99.90;;;;;;5048214;28;20103;-67
2022/08/29 10:43:47;;;;;;;8.00;2.50;;;21.90;99.90;;;;;;5051425;28;20045;-67
2022/08/29 10:46:40;;;;;;;9.57;2.70;;;22.10;99.90;;;;;;5041951;28;20053;-68
2022/08/29 10:49:34;;;;;;;7.00;2.80;;;22.20;99.90;;;;;;5059708;28;20041;-67
2022/08/29 10:52:12;;;;;;;14.63;2.80;;;22.10;99.90;;;;;;5061283;28;20036;-67
2022/08/29 10:55:19;;;;;;;7.30;2.95;;;22.10;99.90;;;;;;5042504;28;20423;-68
2022/08/29 10:58:04;;;;;;;12.18;2.90;;;22.10;99.90;;;;;;5024056;28;20524;-67
2022/08/29 11:00:58;;;;;;;8.52;2.90;;;22.10;99.90;;;;;;5044706;28;20048;-67
2022/08/29 11:03:48;;;;;;;9.30;2.70;;;21.90;99.90;;;;;;5048003;28;20132;-68
2022/08/29 11:06:21;;;;;;;8.85;2.95;;;21.90;99.90;;;;;;5051946;28;20045;-68
2022/08/29 11:08:51;;;;;;;7.40;2.75;;;21.70;99.90;;;;;;5042655;28;20122;-67
2022/08/29 11:11:19;;;;;;;6.82;2.53;;;21.60;99.90;;;;;;5043074;28;20157;-68
2022/08/29 11:14:10;;;;;;;6.47;3.00;;;21.60;99.90;;;;;;5042430;28;20068;-66
2022/08/29 11:16:39;;;;;;;9.10;2.90;;;21.50;99.90;;;;;;5045611;28;20049;-67
2022/08/29 11:19:34;;;;;;;6.95;2.75;;;21.60;99.90;;;;;;5042142;28;20049;-67
2022/08/29 11:22:09;;;;;;;8.02;2.83;;;21.70;99.90;;;;;;5016429;28;20495;-67
2022/08/29 11:24:38;;;;;;;6.57;2.85;;;21.70;99.90;;;;;;5045790;28;20098;-67
2022/08/29 11:27:29;;;;;;;6.80;2.80;;;21.80;99.90;;;;;;5044251;28;20088;-67
2022/08/29 11:30:46;;;;;;;5.90;2.55;;;21.80;99.90;;;;;;5047970;28;20072;-68
2022/08/29 11:33:54;;;;;;;7.40;2.90;;;21.80;99.90;;;;;;5042202;28;20059;-68
2022/08/29 11:36:34;;;;;;;7.90;2.75;;;21.80;99.90;;;;;;5025163;28;20479;-67
2022/08/29 11:39:21;;;;;;;8.43;3.00;;;21.90;99.90;;;;;;5042351;28;20064;-67
2022/08/29 11:41:50;;;;;;;8.82;3.28;;;21.90;99.90;;;;;;5042519;28;20476;-67
2022/08/29 11:44:39;;;;;;;7.78;3.10;;;21.90;99.90;;;;;;5046864;28;20124;-68
2022/08/29 11:47:33;;;;;;;7.47;2.55;;;21.90;99.90;;;;;;5048986;28;20041;-67
2022/08/29 11:50:17;;;;;;;9.45;3.03;;;22.00;99.90;;;;;;5049788;28;20081;-67
2022/08/29 11:52:51;;;;;;;7.07;2.80;;;22.00;99.90;;;;;;5050670;28;20037;-67
2022/08/29 11:55:29;;;;;;;8.45;2.72;;;22.10;99.90;;;;;;5048264;28;20053;-67
2022/08/29 11:58:02;;;;;;;9.15;2.92;;;22.20;99.90;;;;;;5048798;28;20037;-67
2022/08/29 12:00:47;;;;;;;9.50;3.25;;;22.20;99.90;;;;;;5046079;28;20029;-67
2022/08/29 12:03:39;;;;;;;7.40;3.50;;;22.30;99.90;;;;;;5048328;28;20067;-67
2022/08/29 12:06:30;;;;;;;8.80;3.10;;;22.20;99.90;;;;;;5047946;28;20454;-67
2022/08/29 12:09:00;;;;;;;5.25;2.70;;;22.20;99.90;;;;;;5048328;28;20121;-67
2022/08/29 12:12:04;;;;;;;8.75;3.70;;;22.10;99.90;;;;;;5048203;28;20032;-67
2022/08/29 12:14:42;;;;;;;9.15;3.20;;;22.10;99.90;;;;;;5043252;28;20041;-67
2022/08/29 12:17:28;;;;;;;5.93;2.92;;;22.00;99.90;;;;;;5057455;28;20095;-68
2022/08/29 12:20:03;;;;;;;6.75;3.03;;;22.00;99.90;;;;;;5037081;28;20129;-67
2022/08/29 12:22:50;;;;;;;5.78;2.97;;;22.00;99.90;;;;;;5042903;28;20603;-67
2022/08/29 12:25:42;;;;;;;9.80;2.90;;;22.00;99.90;;;;;;5045506;28;20049;-68
2022/08/29 12:28:16;;;;;;;8.40;3.17;;;22.10;99.90;;;;;;5046916;28;20040;-67
2022/08/29 12:30:57;;;;;;;8.68;3.35;;;22.20;99.90;;;;;;5038623;28;20056;-67
2022/08/29 12:33:51;;;;;;;9.63;3.33;;;22.20;99.90;;;;;;5042529;28;20175;-67
2022/08/29 12:36:48;;;;;;;10.27;3.35;;;22.20;99.90;;;;;;5037984;28;20049;-67
2022/08/29 12:39:57;;;;;;;9.07;3.20;;;22.10;99.90;;;;;;5041668;28;20419;-68
2022/08/29 12:42:46;;;;;;;7.47;3.38;;;22.10;99.90;;;;;;5054182;28;20044;-67
2022/08/29 12:45:17;;;;;;;10.10;3.50;;;22.00;99.90;;;;;;5039849;28;20036;-67
2022/08/29 12:47:50;;;;;;;9.60;3.65;;;21.90;99.90;;;;;;5040507;28;20039;-67
2022/08/29 12:50:27;;;;;;;9.65;4.32;;;21.80;99.90;;;;;;5040956;28;20472;-67
2022/08/29 12:53:04;;;;;;;10.38;4.30;;;21.80;99.90;;;;;;5043620;28;20087;-67
2022/08/29 12:55:40;;;;;;;12.95;4.50;;;21.80;99.90;;;;;;5041559;28;20033;-67
2022/08/29 12:58:10;;;;;;;10.60;3.85;;;21.90;99.90;;;;;;5043650;28;20045;-68
2022/08/29 13:00:36;;;;;;;8.10;4.18;;;21.80;99.90;;;;;;5044193;28;20464;-67
2022/08/29 13:03:05;;;;;;;11.18;4.07;;;21.90;99.90;;;;;;5048316;28;20119;-68
2022/08/29 13:05:34;;;;;;;8.20;4.30;;;21.90;99.90;;;;;;5046488;28;20052;-67
2022/08/29 13:08:08;;;;;;;14.07;4.13;;;21.90;99.90;;;;;;5046786;28;20132;-67
2022/08/29 13:10:37;;;;;;;13.20;4.10;;;21.90;99.90;;;;;;5047065;28;20045;-67